createdAt,value
2019-06-10T00:00:57.349Z,59.60
2019-06-10T00:06:01.861Z,60.10
2019-06-10T00:11:05.911Z,59.80
2019-06-10T00:16:11.294Z,60.00
2019-06-10T00:21:13.221Z,59.70
2019-06-10T00:26:17.654Z,60.20
2019-06-10T00:31:20.772Z,60.40
2019-06-10T00:36:23.557Z,60.40
2019-06-10T00:41:26.230Z,60.30
2019-06-10T00:46:28.980Z,60.40
2019-06-10T00:51:31.717Z,60.50
2019-06-10T00:56:34.454Z,60.30
2019-06-10T01:01:37.197Z,60.60
2019-06-10T01:06:42.171Z,60.50
2019-06-10T01:11:44.310Z,61.00
2019-06-10T01:16:47.129Z,61.10
2019-06-10T01:21:51.224Z,61.90
2019-06-10T01:26:54.139Z,61.60
2019-06-10T01:31:56.882Z,62.00
2019-06-10T01:37:01.498Z,62.10
2019-06-10T01:42:03.952Z,62.20
2019-06-10T01:47:06.707Z,62.30
2019-06-10T01:52:12.019Z,62.20
2019-06-10T01:57:15.358Z,62.10
2019-06-10T02:02:19.375Z,62.10
2019-06-10T02:07:23.300Z,62.20
2019-06-10T02:12:26.121Z,62.40
2019-06-10T02:17:31.038Z,62.40
2019-06-10T02:22:33.296Z,62.50
2019-06-10T02:27:36.130Z,62.00
2019-06-10T02:32:38.867Z,62.40
2019-06-10T02:37:44.569Z,62.30
2019-06-10T02:42:45.973Z,63.10
2019-06-10T02:47:48.631Z,63.40
2019-06-10T02:52:53.109Z,63.80
2019-06-10T02:57:55.908Z,63.60
2019-06-10T03:02:58.576Z,64.00
2019-06-10T03:08:03.921Z,63.60
2019-06-10T03:13:05.691Z,64.00
2019-06-10T03:18:08.337Z,65.10
2019-06-10T03:23:12.082Z,64.50
2019-06-10T03:28:15.428Z,64.50
2019-06-10T03:33:20.172Z,64.60
2019-06-10T03:38:23.653Z,64.60
2019-06-10T03:43:27.922Z,64.70
2019-06-10T03:48:32.851Z,64.50
2019-06-10T03:53:35.254Z,64.50
2019-06-10T03:58:38.295Z,64.40
2019-06-10T04:03:42.777Z,64.70
2019-06-10T04:08:45.345Z,64.80
2019-06-10T04:13:48.003Z,65.20
2019-06-10T04:18:50.706Z,64.40
2019-06-10T04:23:53.460Z,64.20
2019-06-10T04:28:56.115Z,64.90
2019-06-10T04:33:58.785Z,64.50
2019-06-10T04:39:03.224Z,65.10
2019-06-10T04:44:05.849Z,64.50
2019-06-10T04:49:08.588Z,64.50
2019-06-10T04:54:13.310Z,64.30
2019-06-10T04:59:15.987Z,64.30
2019-06-10T05:04:18.940Z,64.80
2019-06-10T05:09:24.481Z,64.40
2019-06-10T05:14:28.535Z,63.90
2019-06-10T05:19:31.383Z,64.00
2019-06-10T05:24:34.845Z,63.80
2019-06-10T05:29:37.583Z,63.50
2019-06-10T05:34:40.251Z,63.60
2019-06-10T05:39:43.000Z,63.40
2019-06-10T05:44:45.738Z,63.20
2019-06-10T05:49:55.422Z,63.40
2019-06-10T05:54:58.155Z,63.60
2019-06-10T06:00:04.163Z,63.50
2019-06-10T06:05:07.270Z,63.50
2019-06-10T06:10:13.057Z,63.20
2019-06-10T06:15:15.783Z,63.70
2019-06-10T06:20:19.487Z,62.80
2019-06-10T06:25:24.087Z,63.00
2019-06-10T06:30:28.073Z,62.50
2019-06-10T06:35:33.555Z,62.00
2019-06-10T06:40:37.207Z,62.50
2019-06-10T06:45:42.445Z,62.00
2019-06-10T06:51:00.414Z,62.00
2019-06-10T06:55:48.597Z,62.50
2019-06-10T07:01:01.882Z,62.30
2019-06-10T07:05:55.712Z,62.20
2019-06-10T07:11:02.826Z,62.00
2019-06-10T07:16:05.610Z,61.90
2019-06-10T07:21:08.789Z,61.40
2019-06-10T07:26:12.750Z,61.10
2019-06-10T07:31:22.988Z,60.60
2019-06-10T07:36:23.287Z,60.10
2019-06-10T07:41:24.828Z,59.20
2019-06-10T07:46:27.490Z,57.50
2019-06-10T07:51:32.467Z,57.50
2019-06-10T07:56:39.805Z,58.50
2019-06-10T08:01:45.985Z,56.90
2019-06-10T08:06:45.703Z,56.50
2019-06-10T08:11:48.854Z,55.90
2019-06-10T08:16:53.122Z,55.80
2019-06-10T08:21:56.160Z,55.90
2019-06-10T08:26:58.886Z,56.10
2019-06-10T08:32:03.345Z,55.10
2019-06-10T08:37:06.276Z,53.70
2019-06-10T08:42:08.935Z,53.70
2019-06-10T08:47:12.400Z,53.40
2019-06-10T08:52:15.255Z,53.50
2019-06-10T08:57:17.958Z,53.60
2019-06-10T09:02:23.083Z,53.10
2019-06-10T09:07:25.163Z,53.20
2019-06-10T09:12:32.440Z,53.70
2019-06-10T09:17:33.818Z,53.60
2019-06-10T09:22:36.758Z,53.20
2019-06-10T09:27:40.681Z,53.70
2019-06-10T09:32:48.415Z,52.50
2019-06-10T09:37:51.111Z,53.70
2019-06-10T09:42:55.189Z,53.80
2019-06-10T09:47:59.890Z,52.50
2019-06-10T09:53:03.927Z,52.40
2019-06-10T09:58:06.633Z,53.50
2019-06-10T10:03:09.381Z,52.40
2019-06-10T10:08:12.819Z,52.90
2019-06-10T10:13:15.623Z,52.90
2019-06-10T10:18:18.590Z,52.10
2019-06-10T10:23:22.672Z,49.30
2019-06-10T10:28:26.583Z,48.80
2019-06-10T10:33:32.616Z,50.20
2019-06-10T10:38:34.889Z,49.10
2019-06-10T10:43:38.139Z,50.30
2019-06-10T10:48:40.966Z,51.00
2019-06-10T10:53:48.220Z,49.20
2019-06-10T10:58:49.215Z,49.20
2019-06-10T11:03:58.592Z,49.10
2019-06-10T11:08:57.784Z,50.20
2019-06-10T11:14:03.555Z,49.50
2019-06-10T11:19:06.341Z,47.70
2019-06-10T11:24:08.999Z,48.20
2019-06-10T11:29:11.657Z,48.70
2019-06-10T11:34:14.339Z,47.30
2019-06-10T11:39:17.005Z,47.90
2019-06-10T11:44:19.667Z,49.60
2019-06-10T11:49:23.746Z,48.60
2019-06-10T11:54:26.862Z,48.80
2019-06-10T11:59:29.528Z,48.60
2019-06-10T12:04:32.190Z,49.80
2019-06-10T12:09:34.931Z,51.00
2019-06-10T12:14:37.685Z,50.70
2019-06-10T12:19:40.420Z,51.10
2019-06-10T12:24:43.378Z,52.90
2019-06-10T12:29:46.306Z,54.60
2019-06-10T12:34:48.982Z,56.10
2019-06-10T12:39:54.999Z,60.90
2019-06-10T12:44:57.688Z,59.30
2019-06-10T12:50:04.077Z,60.60
2019-06-10T12:55:07.277Z,57.40
2019-06-10T13:00:20.385Z,59.10
2019-06-10T13:05:16.526Z,58.80
2019-06-10T13:10:25.270Z,60.50
2019-06-10T13:15:28.710Z,57.20
2019-06-10T13:20:34.486Z,60.60
2019-06-10T13:25:50.344Z,59.10
2019-06-10T13:30:42.837Z,54.10
2019-06-10T13:35:45.709Z,52.80
2019-06-10T13:40:48.380Z,53.10
2019-06-10T13:45:53.182Z,50.30
2019-06-10T13:50:55.513Z,51.90
2019-06-10T13:56:19.035Z,49.70
2019-06-10T14:01:06.743Z,49.40
2019-06-10T14:06:23.526Z,49.50
2019-06-10T14:11:13.302Z,47.70
2019-06-10T14:16:15.844Z,44.70
2019-06-10T14:21:18.790Z,45.50
2019-06-10T14:26:36.722Z,45.10
2019-06-10T14:31:39.174Z,43.20
2019-06-10T14:36:32.493Z,43.10
2019-06-10T14:41:34.897Z,44.00
2019-06-10T14:46:37.629Z,44.20
2019-06-10T14:51:42.930Z,42.50
2019-06-10T14:56:52.784Z,43.40
2019-06-10T15:01:52.009Z,44.70
2019-06-10T15:06:54.182Z,41.70
2019-06-10T15:11:56.919Z,40.70
2019-06-10T15:17:02.548Z,42.30
2019-06-10T15:22:04.049Z,43.20
2019-06-10T15:27:14.211Z,43.90
2019-06-10T15:32:26.314Z,45.40
2019-06-10T15:37:18.582Z,44.30
2019-06-10T15:42:22.446Z,45.60
2019-06-10T15:47:26.398Z,45.90
2019-06-10T15:52:29.232Z,45.60
2019-06-10T15:57:40.790Z,46.70
2019-06-10T16:02:36.647Z,47.70
2019-06-10T16:07:39.323Z,48.40
2019-06-10T16:12:43.784Z,49.10
2019-06-10T16:17:46.561Z,49.00
2019-06-10T16:22:49.239Z,48.50
2019-06-10T16:27:54.475Z,49.40
2019-06-10T16:32:56.388Z,49.20
2019-06-10T16:37:59.134Z,48.70
2019-06-10T16:43:01.790Z,48.80
2019-06-10T16:48:04.519Z,49.40
2019-06-10T16:53:30.194Z,51.60
2019-06-10T16:58:33.195Z,51.90
2019-06-10T17:03:35.764Z,54.10
2019-06-10T17:08:38.443Z,56.60
2019-06-10T17:13:42.270Z,58.40
2019-06-10T17:18:45.585Z,57.80
2019-06-10T17:23:48.324Z,58.80
2019-06-10T17:28:52.122Z,58.80
2019-06-10T17:33:55.015Z,60.00
2019-06-10T17:38:57.749Z,62.60
2019-06-10T17:44:02.516Z,62.50
2019-06-10T17:49:04.972Z,63.10
2019-06-10T17:54:07.656Z,63.40
2019-06-10T17:59:12.666Z,63.30
2019-06-10T18:04:15.204Z,63.30
2019-06-10T18:09:17.933Z,63.10
2019-06-10T18:14:22.997Z,65.00
2019-06-10T18:19:26.310Z,63.20
2019-06-10T18:24:30.902Z,63.30
2019-06-10T18:29:35.878Z,64.70
2019-06-10T18:34:38.491Z,65.20
2019-06-10T18:39:42.996Z,65.10
2019-06-10T18:44:45.558Z,65.50
2019-06-10T18:49:48.298Z,65.80
2019-06-10T18:54:52.859Z,65.20
2019-06-10T18:59:55.403Z,65.70
2019-06-10T19:04:58.148Z,65.20
2019-06-10T19:10:02.367Z,65.40
2019-06-10T19:15:06.878Z,64.60
2019-06-10T19:20:09.698Z,64.90
2019-06-10T19:25:12.900Z,65.10
2019-06-10T19:30:16.406Z,66.20
2019-06-10T19:35:19.211Z,66.30
2019-06-10T19:40:22.741Z,66.00
2019-06-10T19:45:25.627Z,65.90
2019-06-10T19:50:28.423Z,66.00
2019-06-10T19:55:32.416Z,66.10
2019-06-10T20:00:36.000Z,66.30
2019-06-10T20:05:40.052Z,65.70
2019-06-10T20:10:49.851Z,65.90
2019-06-10T20:15:52.686Z,66.10
2019-06-10T20:20:55.634Z,66.80
2019-06-10T20:25:58.363Z,66.60
2019-06-10T20:31:01.109Z,66.40
2019-06-10T20:36:07.592Z,67.10
2019-06-10T20:41:08.712Z,67.10
2019-06-10T20:46:13.051Z,67.80
2019-06-10T20:51:15.786Z,67.90
2019-06-10T20:56:20.331Z,68.30
2019-06-10T21:01:25.169Z,68.40
2019-06-10T21:06:29.012Z,68.70
2019-06-10T21:11:32.207Z,68.50
2019-06-10T21:16:34.943Z,68.70
2019-06-10T21:21:37.687Z,68.90
2019-06-10T21:26:41.105Z,69.10
2019-06-10T21:31:46.947Z,69.60
2019-06-10T21:36:49.425Z,69.60
2019-06-10T21:41:54.538Z,69.50
2019-06-10T21:46:57.799Z,69.60
2019-06-10T21:52:02.657Z,69.30
2019-06-10T21:57:04.866Z,69.00
2019-06-10T22:02:07.560Z,68.50
2019-06-10T22:07:10.282Z,68.00
2019-06-10T22:12:12.934Z,68.00
2019-06-10T22:17:15.604Z,67.80
2019-06-10T22:22:23.054Z,68.30
2019-06-10T22:27:25.729Z,68.20
2019-06-10T22:32:28.367Z,69.10
2019-06-10T22:37:32.918Z,68.50
2019-06-10T22:42:35.783Z,68.70
2019-06-10T22:47:38.654Z,68.60
2019-06-10T22:52:42.555Z,68.00
2019-06-10T22:57:45.431Z,68.00
2019-06-10T23:02:48.102Z,67.00
2019-06-10T23:07:52.912Z,66.80
2019-06-10T23:12:56.646Z,66.10
2019-06-10T23:18:00.294Z,64.90
2019-06-10T23:23:03.384Z,64.60
2019-06-10T23:28:06.036Z,65.40
2019-06-10T23:33:08.709Z,65.00
2019-06-10T23:38:13.157Z,65.00
2019-06-10T23:43:15.807Z,65.80
2019-06-10T23:48:18.468Z,65.80
2019-06-10T23:53:23.166Z,64.60
2019-06-10T23:58:25.573Z,64.90
